Dunbarton, South Carolina
Current Conditions -  °F | °C
As of 11:15 AM on Thursday 30 Oct 2014 (Local Time) from KBNL Reporting Station
Clear Clear  
Wind Chill: 66°   Ceiling: Unl
Heat Index: 66°   Visibility: 10mi
Dew Point: 46°   Wind: 8mph
Humidity: 49%   Direction: 50°NE
Pressure: 30.04"   Gusts: NA
Location:  33.2653°N, 81.6553°W
Report Text: KBNL 301515Z AUTO 05007KT 10SM CLR 19/08 A3004 RMK AO2
Loading
Personal Weather Stations






























Interactive Weather Map
Tropical Storm Tracking
New forecast layout! Learn more

10-Day Weather Forecast

Advertisements
Track Severe Weather on mobile